createdAt,value
2022-09-23T00:01:04.552Z,102102.16
2022-09-23T00:03:32.977Z,102106.56
2022-09-23T00:06:01.562Z,102108.34
2022-09-23T00:08:29.200Z,102110.97
2022-09-23T00:10:56.949Z,102103.97
2022-09-23T00:13:26.873Z,102107.47
2022-09-23T00:15:53.597Z,102106.59
2022-09-23T00:18:21.073Z,102111.84
2022-09-23T00:20:48.116Z,102111.81
2022-09-23T00:23:14.998Z,102105.75
2022-09-23T00:25:41.738Z,102109.25
2022-09-23T00:28:08.471Z,102102.31
2022-09-23T00:30:35.320Z,102108.47
2022-09-23T00:33:02.083Z,102113.75
2022-09-23T00:35:28.812Z,102109.38
2022-09-23T00:37:56.182Z,102112.91
2022-09-23T00:40:23.037Z,102111.19
2022-09-23T00:42:52.122Z,102116.41
2022-09-23T00:45:19.516Z,102118.22
2022-09-23T00:47:59.139Z,102125.25
2022-09-23T00:50:40.278Z,102112.16
2022-09-23T00:53:11.589Z,102117.41
2022-09-23T00:55:46.802Z,102123.53
2022-09-23T00:58:17.788Z,102113.91
2022-09-23T01:00:46.429Z,102122.66
2022-09-23T01:03:14.073Z,102118.25
2022-09-23T01:05:42.113Z,102116.53
2022-09-23T01:08:12.762Z,102117.44
2022-09-23T01:10:57.784Z,102113.03
2022-09-23T01:13:56.016Z,102111.28
2022-09-23T01:17:16.974Z,102113.94
2022-09-23T01:20:03.361Z,102109.53
2022-09-23T01:22:35.961Z,102100.75
2022-09-23T01:25:23.165Z,102108.66
2022-09-23T01:28:08.597Z,102111.25
2022-09-23T01:30:50.519Z,102104.28
2022-09-23T01:33:31.853Z,102103.38
2022-09-23T01:36:08.426Z,102090.31
2022-09-23T01:38:40.934Z,102092.94
2022-09-23T01:41:16.892Z,102100.84
2022-09-23T01:44:03.846Z,102100.81
2022-09-23T01:46:37.930Z,102102.50
2022-09-23T01:49:10.472Z,102098.16
2022-09-23T01:51:47.746Z,102105.13
2022-09-23T01:54:28.566Z,102102.50
2022-09-23T01:57:04.973Z,102099.88
2022-09-23T01:59:41.462Z,102097.22
2022-09-23T02:02:15.411Z,102087.69
2022-09-23T02:05:04.325Z,102085.06
2022-09-23T02:07:40.997Z,102090.31
2022-09-23T02:10:15.683Z,102079.81
2022-09-23T02:12:47.400Z,102086.78
2022-09-23T02:15:18.480Z,102081.50
2022-09-23T02:17:52.213Z,102070.16
2022-09-23T02:20:30.735Z,102068.41
2022-09-23T02:23:07.696Z,102059.66
2022-09-23T02:25:59.973Z,102057.84
2022-09-23T02:28:40.177Z,102056.94
2022-09-23T02:31:09.139Z,102038.66
2022-09-23T02:33:46.195Z,102035.22
2022-09-23T02:36:21.809Z,102028.31
2022-09-23T02:38:57.569Z,102025.72
2022-09-23T02:41:28.823Z,102025.75
2022-09-23T02:44:11.666Z,102019.66
2022-09-23T02:46:39.047Z,102010.03
2022-09-23T02:49:19.939Z,102010.97
2022-09-23T02:51:47.071Z,102019.75
2022-09-23T02:54:18.801Z,102030.28
2022-09-23T02:56:45.639Z,102027.69
2022-09-23T02:59:13.078Z,102026.84
2022-09-23T03:02:05.039Z,102024.25
2022-09-23T03:05:08.685Z,102032.19
2022-09-23T03:08:04.335Z,102034.00
2022-09-23T03:10:41.290Z,102029.72
2022-09-23T03:13:19.356Z,102039.34
2022-09-23T03:16:00.557Z,102041.13
2022-09-23T03:18:40.230Z,102037.59
2022-09-23T03:21:13.500Z,102041.97
2022-09-23T03:23:42.225Z,102036.72
2022-09-23T03:26:13.823Z,102038.44
2022-09-23T03:28:43.708Z,102042.81
2022-09-23T03:31:13.081Z,102038.44
2022-09-23T03:33:45.582Z,102045.44
2022-09-23T03:36:36.617Z,102043.69
2022-09-23T03:39:08.932Z,102049.81
2022-09-23T03:41:50.812Z,102043.72
2022-09-23T03:44:19.478Z,102032.41
2022-09-23T03:46:49.893Z,102028.97
2022-09-23T03:49:24.293Z,102025.50
2022-09-23T03:51:51.043Z,102025.50
2022-09-23T03:54:19.676Z,102030.72
2022-09-23T03:56:50.366Z,102033.34
2022-09-23T03:59:17.393Z,102025.50
2022-09-23T04:01:45.939Z,102029.00
2022-09-23T04:04:13.012Z,102031.63
2022-09-23T04:06:39.823Z,102030.75
2022-09-23T04:09:06.943Z,102037.72
2022-09-23T04:11:33.704Z,102040.34
2022-09-23T04:14:00.533Z,102045.59
2022-09-23T04:16:27.974Z,102043.81
2022-09-23T04:18:54.833Z,102044.72
2022-09-23T04:21:22.113Z,102045.59
2022-09-23T04:23:48.827Z,102044.75
2022-09-23T04:26:15.895Z,102039.53
2022-09-23T04:28:42.665Z,102037.81
2022-09-23T04:31:09.948Z,102036.94
2022-09-23T04:33:37.649Z,102047.44
2022-09-23T04:36:04.828Z,102051.81
2022-09-23T04:38:31.705Z,102050.06
2022-09-23T04:40:58.872Z,102050.97
2022-09-23T04:43:25.648Z,102054.44
2022-09-23T04:46:02.575Z,102053.59
2022-09-23T04:48:29.668Z,102059.72
2022-09-23T04:51:17.356Z,102071.06
2022-09-23T04:53:46.101Z,102065.84
2022-09-23T04:56:15.997Z,102079.78
2022-09-23T04:58:43.928Z,102075.44
2022-09-23T05:01:23.869Z,102087.63
2022-09-23T05:03:52.894Z,102090.25
2022-09-23T05:06:20.522Z,102090.25
2022-09-23T05:08:53.002Z,102086.72
2022-09-23T05:11:19.977Z,102091.06
2022-09-23T05:13:51.713Z,102094.56
2022-09-23T05:16:19.963Z,102107.66
2022-09-23T05:18:46.905Z,102099.81
2022-09-23T05:21:16.209Z,102097.19
2022-09-23T05:23:47.929Z,102094.56
2022-09-23T05:26:15.302Z,102101.53
2022-09-23T05:28:42.093Z,102098.03
2022-09-23T05:31:15.824Z,102090.19
2022-09-23T05:33:48.802Z,102092.78
2022-09-23T05:36:17.830Z,102098.88
2022-09-23T05:38:45.234Z,102095.38
2022-09-23T05:41:13.510Z,102094.50
2022-09-23T05:43:41.143Z,102084.03
2022-09-23T05:46:11.943Z,102089.22
2022-09-23T05:48:40.202Z,102079.63
2022-09-23T05:51:12.997Z,102071.72
2022-09-23T05:53:41.666Z,102067.34
2022-09-23T05:56:08.555Z,102062.00
2022-09-23T05:58:35.582Z,102068.06
2022-09-23T06:01:09.913Z,102059.28
2022-09-23T06:03:36.990Z,102060.06
2022-09-23T06:06:03.885Z,102050.38
2022-09-23T06:08:31.934Z,102053.75
2022-09-23T06:10:58.780Z,102050.16
2022-09-23T06:13:27.451Z,102034.28
2022-09-23T06:15:58.091Z,102023.66
2022-09-23T06:18:25.055Z,102009.59
2022-09-23T06:20:52.058Z,102010.25
2022-09-23T06:23:20.258Z,102002.28
2022-09-23T06:25:48.887Z,101986.44
2022-09-23T06:28:15.656Z,101977.56
2022-09-23T06:30:42.716Z,101968.66
2022-09-23T06:33:10.188Z,101965.16
2022-09-23T06:35:36.929Z,101952.03
2022-09-23T06:38:05.600Z,101946.78
2022-09-23T06:40:32.640Z,101942.44
2022-09-23T06:43:01.049Z,101942.38
2022-09-23T06:45:28.822Z,101931.81
2022-09-23T06:47:58.616Z,101923.91
2022-09-23T06:50:27.151Z,101923.94
2022-09-23T06:52:56.247Z,101926.47
2022-09-23T06:55:24.875Z,101918.38
2022-09-23T06:57:51.715Z,101919.00
2022-09-23T07:00:19.371Z,101905.59
2022-09-23T07:02:47.081Z,101902.69
2022-09-23T07:05:16.521Z,101902.19
2022-09-23T07:07:44.597Z,101893.66
2022-09-23T07:10:12.266Z,101880.09
2022-09-23T07:12:39.264Z,101876.06
2022-09-23T07:15:06.710Z,101868.03
2022-09-23T07:17:34.993Z,101853.13
2022-09-23T07:20:02.162Z,101849.50
2022-09-23T07:22:29.553Z,101855.53
2022-09-23T07:24:56.344Z,101854.72
2022-09-23T07:27:25.888Z,101852.97
2022-09-23T07:29:53.149Z,101856.59
2022-09-23T07:32:22.094Z,101853.16
2022-09-23T07:34:49.336Z,101849.69
2022-09-23T07:37:18.101Z,101847.81
2022-09-23T07:39:45.458Z,101851.31
2022-09-23T07:42:13.269Z,101849.47
2022-09-23T07:44:43.259Z,101849.19
2022-09-23T07:47:10.049Z,101847.81
2022-09-23T07:49:37.158Z,101847.75
2022-09-23T07:52:04.849Z,101848.41
2022-09-23T07:54:32.793Z,101848.81
2022-09-23T07:56:59.915Z,101847.41
2022-09-23T07:59:27.297Z,101842.91
2022-09-23T08:01:56.714Z,101834.63
2022-09-23T08:04:29.868Z,101829.59
2022-09-23T08:07:05.411Z,101819.81
2022-09-23T08:09:41.683Z,101810.78
2022-09-23T08:12:16.252Z,101805.97
2022-09-23T08:14:43.519Z,101801.56
2022-09-23T08:17:12.512Z,101788.63
2022-09-23T08:19:39.299Z,101791.38
2022-09-23T08:22:06.102Z,101783.53
2022-09-23T08:24:32.866Z,101788.41
2022-09-23T08:26:59.627Z,101791.44
2022-09-23T08:29:26.530Z,101786.91
2022-09-23T08:31:54.050Z,101780.72
2022-09-23T08:34:22.606Z,101792.78
2022-09-23T08:36:49.769Z,101790.59
2022-09-23T08:39:18.228Z,101785.69
2022-09-23T08:42:06.403Z,101780.75
2022-09-23T08:44:39.393Z,101771.25
2022-09-23T08:47:12.288Z,101768.84
2022-09-23T08:50:06.618Z,101767.28
2022-09-23T08:52:39.896Z,101759.47
2022-09-23T08:55:13.290Z,101763.88
2022-09-23T08:58:24.001Z,101766.94
2022-09-23T09:01:02.459Z,101765.03
2022-09-23T09:03:46.131Z,101764.44
2022-09-23T09:06:18.737Z,101772.97
2022-09-23T09:08:54.644Z,101763.06
2022-09-23T09:11:23.908Z,101757.94
2022-09-23T09:14:17.290Z,101759.88
2022-09-23T09:17:17.893Z,101750.75
2022-09-23T09:19:47.719Z,101746.06
2022-09-23T09:22:21.300Z,101749.16
2022-09-23T09:24:49.737Z,101746.34
2022-09-23T09:27:16.487Z,101748.13
2022-09-23T09:29:49.878Z,101739.03
2022-09-23T09:32:33.745Z,101740.34
2022-09-23T09:35:09.107Z,101741.63
2022-09-23T09:37:47.713Z,101740.72
2022-09-23T09:40:20.443Z,101739.13
2022-09-23T09:42:49.999Z,101736.25
2022-09-23T09:45:38.623Z,101732.06
2022-09-23T09:48:34.867Z,101729.88
2022-09-23T09:51:27.715Z,101733.63
2022-09-23T09:53:56.908Z,101729.03
2022-09-23T09:56:34.850Z,101719.91
2022-09-23T09:59:13.836Z,101714.63
2022-09-23T10:01:40.706Z,101713.88
2022-09-23T10:04:23.779Z,101707.00
2022-09-23T10:07:07.623Z,101695.84
2022-09-23T10:09:38.786Z,101704.06
2022-09-23T10:12:20.311Z,101697.78
2022-09-23T10:14:51.912Z,101694.16
2022-09-23T10:17:24.175Z,101691.84
2022-09-23T10:20:00.355Z,101695.53
2022-09-23T10:22:42.883Z,101706.38
2022-09-23T10:25:18.080Z,101693.22
2022-09-23T10:27:45.595Z,101681.34
2022-09-23T10:30:15.342Z,101689.19
2022-09-23T10:32:45.274Z,101682.28
2022-09-23T10:35:16.269Z,101685.09
2022-09-23T10:37:46.805Z,101675.28
2022-09-23T10:40:39.773Z,101676.75
2022-09-23T10:44:02.487Z,101669.41
2022-09-23T10:46:41.249Z,101676.28
2022-09-23T10:49:31.056Z,101669.03
2022-09-23T10:52:17.160Z,101676.31
2022-09-23T10:54:56.750Z,101671.25
2022-09-23T10:57:44.940Z,101665.03
2022-09-23T11:00:30.461Z,101664.41
2022-09-23T11:03:09.382Z,101671.53
2022-09-23T11:06:00.822Z,101669.91
2022-09-23T11:08:50.954Z,101663.47
2022-09-23T11:11:42.111Z,101663.38
2022-09-23T11:14:27.688Z,101664.66
2022-09-23T11:17:14.768Z,101654.50
2022-09-23T11:19:58.381Z,101659.72
2022-09-23T11:23:00.551Z,101662.09
2022-09-23T11:25:58.463Z,101654.53
2022-09-23T11:28:55.435Z,101658.22
2022-09-23T11:31:47.377Z,101654.47
2022-09-23T11:34:25.473Z,101661.19
2022-09-23T11:36:52.150Z,101652.75
2022-09-23T11:39:31.092Z,101659.78
2022-09-23T11:42:01.602Z,101658.38
2022-09-23T11:44:51.093Z,101652.13
2022-09-23T11:47:26.463Z,101654.53
2022-09-23T11:50:00.612Z,101651.78
2022-09-23T11:52:36.344Z,101640.72
2022-09-23T11:55:22.900Z,101639.50
2022-09-23T11:57:53.006Z,101632.41
2022-09-23T12:00:26.562Z,101634.84
2022-09-23T12:03:30.525Z,101632.28
2022-09-23T12:06:32.209Z,101630.63
2022-09-23T12:09:11.066Z,101631.75
2022-09-23T12:11:46.666Z,101628.72
2022-09-23T12:14:38.942Z,101631.50
2022-09-23T12:17:37.826Z,101632.50
2022-09-23T12:20:33.453Z,101627.41
2022-09-23T12:23:54.713Z,101634.19
2022-09-23T12:26:25.168Z,101629.59
2022-09-23T12:28:58.932Z,101630.66
2022-09-23T12:31:30.740Z,101633.97
2022-09-23T12:34:03.906Z,101628.94
2022-09-23T12:36:36.672Z,101631.94
2022-09-23T12:39:03.465Z,101629.91
2022-09-23T12:41:35.364Z,101633.69
2022-09-23T12:44:12.851Z,101625.09
2022-09-23T12:46:41.520Z,101625.44
2022-09-23T12:49:35.948Z,101616.16
2022-09-23T12:52:11.800Z,101613.06
2022-09-23T12:54:40.617Z,101608.59
2022-09-23T12:57:12.545Z,101610.81
2022-09-23T12:59:51.523Z,101606.59
2022-09-23T13:02:30.362Z,101606.50
2022-09-23T13:05:28.072Z,101607.03
2022-09-23T13:08:24.396Z,101605.66
2022-09-23T13:11:01.643Z,101611.16
2022-09-23T13:13:35.692Z,101610.03
2022-09-23T13:16:31.635Z,101611.41
2022-09-23T13:19:06.586Z,101606.25
2022-09-23T13:21:42.620Z,101600.25
2022-09-23T13:24:12.627Z,101602.31
2022-09-23T13:26:45.679Z,101602.22
2022-09-23T13:29:19.276Z,101595.03
2022-09-23T13:31:47.543Z,101597.28
2022-09-23T13:34:19.660Z,101588.31
2022-09-23T13:36:48.614Z,101589.34
2022-09-23T13:39:20.806Z,101584.00
2022-09-23T13:41:47.766Z,101586.00
2022-09-23T13:44:20.531Z,101578.69
2022-09-23T13:46:51.472Z,101578.94
2022-09-23T13:49:24.777Z,101579.31
2022-09-23T13:51:54.150Z,101588.47
2022-09-23T13:54:49.327Z,101585.06
2022-09-23T13:57:26.936Z,101584.50
2022-09-23T13:59:53.749Z,101583.44
2022-09-23T14:02:20.576Z,101585.38
2022-09-23T14:04:47.458Z,101586.22
2022-09-23T14:07:16.767Z,101582.03
2022-09-23T14:09:47.793Z,101575.91
2022-09-23T14:12:15.278Z,101583.19
2022-09-23T14:14:43.310Z,101579.19
2022-09-23T14:17:18.427Z,101575.38
2022-09-23T14:19:46.087Z,101584.22
2022-09-23T14:22:27.597Z,101593.44
2022-09-23T14:24:56.969Z,101588.72
2022-09-23T14:27:32.255Z,101590.84
2022-09-23T14:30:00.317Z,101587.66
2022-09-23T14:32:29.533Z,101592.00
2022-09-23T14:35:05.162Z,101589.84
2022-09-23T14:37:56.659Z,101599.47
2022-09-23T14:40:23.494Z,101597.59
2022-09-23T14:42:57.191Z,101601.75
2022-09-23T14:45:27.692Z,101608.22
2022-09-23T14:48:00.140Z,101611.13
2022-09-23T14:50:47.301Z,101614.06
2022-09-23T14:53:18.473Z,101609.63
2022-09-23T14:56:07.534Z,101615.75
2022-09-23T14:59:00.702Z,101625.03
2022-09-23T15:01:30.544Z,101628.34
2022-09-23T15:04:12.694Z,101634.81
2022-09-23T15:06:43.037Z,101641.59
2022-09-23T15:09:17.581Z,101632.97
2022-09-23T15:11:44.423Z,101634.19
2022-09-23T15:14:36.167Z,101621.69
2022-09-23T15:17:01.305Z,101627.00
2022-09-23T15:19:28.969Z,101631.03
2022-09-23T15:21:55.883Z,101629.28
2022-09-23T15:24:42.537Z,101635.59
2022-09-23T15:27:30.492Z,101639.16
2022-09-23T15:30:15.587Z,101654.69
2022-09-23T15:32:46.317Z,101648.88
2022-09-23T15:35:19.118Z,101664.47
2022-09-23T15:37:47.237Z,101672.34
2022-09-23T15:40:24.481Z,101680.66
2022-09-23T15:42:56.128Z,101681.41
2022-09-23T15:45:33.823Z,101692.09
2022-09-23T15:48:11.965Z,101684.56
2022-09-23T15:50:41.227Z,101688.03
2022-09-23T15:53:13.938Z,101692.47
2022-09-23T15:55:40.777Z,101696.22
2022-09-23T15:58:07.646Z,101698.03
2022-09-23T16:00:36.516Z,101701.94
2022-09-23T16:03:06.059Z,101708.84
2022-09-23T16:05:38.721Z,101711.00
2022-09-23T16:08:09.294Z,101727.19
2022-09-23T16:10:37.740Z,101735.38
2022-09-23T16:13:09.022Z,101752.47
2022-09-23T16:15:35.994Z,101760.00
2022-09-23T16:18:02.834Z,101775.19
2022-09-23T16:20:30.473Z,101804.28
2022-09-23T16:23:00.053Z,101826.28
2022-09-23T16:25:30.134Z,101837.75
2022-09-23T16:27:58.473Z,101859.22
2022-09-23T16:30:30.578Z,101870.63
2022-09-23T16:32:57.590Z,101889.38
2022-09-23T16:35:26.945Z,101911.56
2022-09-23T16:37:53.794Z,101925.66
2022-09-23T16:40:23.099Z,101947.72
2022-09-23T16:42:52.362Z,101966.47
2022-09-23T16:45:23.049Z,101984.91
2022-09-23T16:47:51.932Z,102002.66
2022-09-23T16:50:21.066Z,102012.56
2022-09-23T16:52:48.349Z,102024.06
2022-09-23T16:55:15.867Z,102041.78
2022-09-23T16:57:42.687Z,102054.25
2022-09-23T17:00:32.453Z,102066.63
2022-09-23T17:03:18.363Z,102084.34
2022-09-23T17:05:46.895Z,102093.22
2022-09-23T17:08:15.485Z,102104.63
2022-09-23T17:10:44.043Z,102117.84
2022-09-23T17:13:14.991Z,102131.06
2022-09-23T17:15:44.082Z,102145.97
2022-09-23T17:18:10.914Z,102154.84
2022-09-23T17:20:38.778Z,102168.16
2022-09-23T17:23:05.779Z,102175.09
2022-09-23T17:25:34.069Z,102197.88
2022-09-23T17:28:01.244Z,102201.22
2022-09-23T17:30:28.838Z,102201.28
2022-09-23T17:32:55.709Z,102200.47
2022-09-23T17:35:22.815Z,102190.09
2022-09-23T17:37:50.057Z,102190.25
2022-09-23T17:40:17.396Z,102189.31
2022-09-23T17:42:44.640Z,102188.47
2022-09-23T17:45:12.896Z,102189.44
2022-09-23T17:47:41.913Z,102194.63
2022-09-23T17:50:09.001Z,102191.88
2022-09-23T17:52:35.824Z,102184.72
2022-09-23T17:55:02.640Z,102177.63
2022-09-23T17:57:29.439Z,102173.31
2022-09-23T17:59:56.335Z,102168.97
2022-09-23T18:02:23.363Z,102169.91
2022-09-23T18:04:50.339Z,102166.38
2022-09-23T18:07:17.114Z,102167.19
2022-09-23T18:09:43.863Z,102166.31
2022-09-23T18:12:10.627Z,102163.72
2022-09-23T18:14:37.421Z,102159.44
2022-09-23T18:17:04.226Z,102160.19
2022-09-23T18:19:30.968Z,102154.03
2022-09-23T18:21:58.014Z,102147.91
2022-09-23T18:24:33.362Z,102157.59
2022-09-23T18:27:01.265Z,102145.31
2022-09-23T18:29:28.685Z,102140.09
2022-09-23T18:31:55.879Z,102138.25
2022-09-23T18:34:23.588Z,102147.84
2022-09-23T18:36:50.535Z,102151.31
2022-09-23T18:39:17.495Z,102149.63
2022-09-23T18:41:44.349Z,102153.97
2022-09-23T18:44:11.347Z,102147.69
2022-09-23T18:46:38.334Z,102143.34
2022-09-23T18:49:23.748Z,102145.94
2022-09-23T18:51:54.201Z,102144.97
2022-09-23T18:54:21.942Z,102140.63
2022-09-23T18:56:49.965Z,102140.63
2022-09-23T18:59:20.439Z,102132.72
2022-09-23T19:01:49.995Z,102127.50
2022-09-23T19:04:19.198Z,102121.41
2022-09-23T19:06:46.504Z,102122.31
2022-09-23T19:09:15.108Z,102112.78
2022-09-23T19:11:42.028Z,102111.06
2022-09-23T19:14:11.546Z,102115.38
2022-09-23T19:16:39.945Z,102115.25
2022-09-23T19:19:06.985Z,102109.09
2022-09-23T19:21:34.632Z,102113.44
2022-09-23T19:24:08.149Z,102108.09
2022-09-23T19:26:38.303Z,102109.88
2022-09-23T19:29:08.102Z,102107.19
2022-09-23T19:31:40.103Z,102102.72
2022-09-23T19:34:11.487Z,102103.56
2022-09-23T19:36:41.018Z,102106.16
2022-09-23T19:39:23.768Z,102103.50
2022-09-23T19:41:52.357Z,102096.56
2022-09-23T19:44:20.209Z,102083.31
2022-09-23T19:46:53.453Z,102073.69
2022-09-23T19:49:23.899Z,102068.63
2022-09-23T19:51:50.750Z,102063.19
2022-09-23T19:54:20.872Z,102066.69
2022-09-23T19:56:49.954Z,102069.28
2022-09-23T19:59:19.154Z,102066.56
2022-09-23T20:01:47.979Z,102062.22
2022-09-23T20:04:15.900Z,102067.56
2022-09-23T20:06:43.354Z,102060.47
2022-09-23T20:09:10.390Z,102060.50
2022-09-23T20:11:37.303Z,102065.84
2022-09-23T20:14:06.129Z,102059.72
2022-09-23T20:16:35.919Z,102064.97
2022-09-23T20:19:04.355Z,102065.97
2022-09-23T20:21:31.698Z,102059.78
2022-09-23T20:23:58.803Z,102074.53
2022-09-23T20:26:44.360Z,102068.44
2022-09-23T20:29:11.575Z,102074.72
2022-09-23T20:31:40.543Z,102072.13
2022-09-23T20:34:08.290Z,102083.53
2022-09-23T20:36:35.399Z,102088.75
2022-09-23T20:39:05.888Z,102087.91
2022-09-23T20:41:37.132Z,102099.22
2022-09-23T20:44:07.065Z,102098.31
2022-09-23T20:46:34.545Z,102099.22
2022-09-23T20:49:02.103Z,102094.03
2022-09-23T20:51:29.186Z,102101.97
2022-09-23T20:53:55.986Z,102100.28
2022-09-23T20:56:23.639Z,102101.09
2022-09-23T20:58:52.684Z,102102.16
2022-09-23T21:01:20.806Z,102106.34
2022-09-23T21:03:50.169Z,102114.28
2022-09-23T21:06:19.073Z,102109.91
2022-09-23T21:08:46.546Z,102103.81
2022-09-23T21:11:16.562Z,102113.47
2022-09-23T21:13:48.374Z,102117.78
2022-09-23T21:16:17.419Z,102115.16
2022-09-23T21:18:45.111Z,102111.63
2022-09-23T21:21:14.146Z,102115.88
2022-09-23T21:23:45.912Z,102112.34
2022-09-23T21:26:17.775Z,102110.56
2022-09-23T21:28:46.953Z,102110.56
2022-09-23T21:31:25.776Z,102116.59
2022-09-23T21:34:04.616Z,102120.09
2022-09-23T21:36:33.718Z,102117.44
2022-09-23T21:39:04.455Z,102114.72
2022-09-23T21:41:32.058Z,102111.97
2022-09-23T21:44:00.342Z,102110.28
2022-09-23T21:46:28.281Z,102104.22
2022-09-23T21:48:57.455Z,102108.59
2022-09-23T21:51:27.056Z,102109.50
2022-09-23T21:53:55.794Z,102102.38
2022-09-23T21:56:25.329Z,102098.94
2022-09-23T21:58:54.686Z,102102.47
2022-09-23T22:01:27.506Z,102100.69
2022-09-23T22:03:59.321Z,102095.50
2022-09-23T22:06:27.617Z,102087.47
2022-09-23T22:09:00.669Z,102086.56
2022-09-23T22:11:51.611Z,102078.63
2022-09-23T22:14:19.874Z,102074.19
2022-09-23T22:16:46.999Z,102072.47
2022-09-23T22:19:15.609Z,102069.88
2022-09-23T22:21:44.147Z,102070.75
2022-09-23T22:24:12.558Z,102057.69
2022-09-23T22:26:41.685Z,102056.97
2022-09-23T22:29:28.960Z,102053.31
2022-09-23T22:32:14.305Z,102057.13
2022-09-23T22:34:50.998Z,102059.78
2022-09-23T22:37:26.379Z,102071.91
2022-09-23T22:39:54.335Z,102078.22
2022-09-23T22:42:22.367Z,102080.97
2022-09-23T22:44:50.272Z,102075.69
2022-09-23T22:47:18.105Z,102086.22
2022-09-23T22:49:46.152Z,102085.53
2022-09-23T22:52:14.958Z,102102.22
2022-09-23T22:54:42.192Z,102109.09
2022-09-23T22:57:09.462Z,102116.09
2022-09-23T22:59:37.417Z,102124.97
2022-09-23T23:02:05.072Z,102124.03
2022-09-23T23:04:32.305Z,102128.53
2022-09-23T23:06:59.606Z,102138.19
2022-09-23T23:09:26.459Z,102133.72
2022-09-23T23:11:53.173Z,102148.59
2022-09-23T23:14:20.285Z,102145.94
2022-09-23T23:16:47.540Z,102147.81
2022-09-23T23:19:17.096Z,102152.25
2022-09-23T23:21:45.326Z,102153.94
2022-09-23T23:24:23.638Z,102158.41
2022-09-23T23:26:51.569Z,102161.16
2022-09-23T23:29:20.871Z,102161.19
2022-09-23T23:31:48.623Z,102161.22
2022-09-23T23:34:18.086Z,102168.94
2022-09-23T23:36:45.905Z,102180.41
2022-09-23T23:39:13.767Z,102189.25
2022-09-23T23:41:41.531Z,102189.31
2022-09-23T23:44:08.924Z,102190.19
2022-09-23T23:46:37.365Z,102195.44
2022-09-23T23:49:04.956Z,102200.63
2022-09-23T23:51:32.113Z,102209.41
2022-09-23T23:53:59.797Z,102213.75
2022-09-23T23:56:27.621Z,102220.78
2022-09-23T23:59:04.812Z,102226.72
